createdAt,value
2022-12-27T00:00:33.928Z,0.00
2022-12-27T00:01:34.087Z,0.00
2022-12-27T00:02:34.279Z,0.00
2022-12-27T00:03:34.392Z,0.00
2022-12-27T00:04:34.569Z,0.00
2022-12-27T00:05:34.763Z,0.00
2022-12-27T00:06:34.962Z,0.00
2022-12-27T00:07:35.163Z,0.00
2022-12-27T00:08:35.279Z,0.00
2022-12-27T00:09:35.475Z,0.00
2022-12-27T00:10:35.625Z,0.00
2022-12-27T00:11:35.852Z,0.00
2022-12-27T00:12:35.973Z,0.00
2022-12-27T00:13:36.165Z,0.00
2022-12-27T00:14:36.334Z,0.00
2022-12-27T00:15:36.524Z,0.00
2022-12-27T00:16:36.743Z,0.00
2022-12-27T00:17:36.893Z,0.00
2022-12-27T00:18:37.069Z,0.00
2022-12-27T00:19:37.274Z,0.00
2022-12-27T00:20:37.421Z,0.00
2022-12-27T00:21:37.657Z,0.00
2022-12-27T00:22:37.786Z,0.00
2022-12-27T00:23:37.971Z,0.00
2022-12-27T00:24:38.161Z,0.00
2022-12-27T00:25:38.306Z,0.00
2022-12-27T00:26:38.499Z,0.00
2022-12-27T00:27:38.663Z,0.00
2022-12-27T00:28:38.805Z,0.00
2022-12-27T00:29:38.999Z,0.00
2022-12-27T00:30:39.155Z,0.00
2022-12-27T00:31:39.457Z,0.00
2022-12-27T00:32:39.510Z,0.00
2022-12-27T00:33:39.694Z,0.00
2022-12-27T00:34:39.850Z,0.00
2022-12-27T00:35:39.998Z,0.00
2022-12-27T00:36:40.178Z,0.00
2022-12-27T00:37:40.317Z,0.00
2022-12-27T00:38:40.499Z,0.00
2022-12-27T00:39:40.653Z,0.00
2022-12-27T00:40:40.862Z,0.00
2022-12-27T00:41:41.094Z,0.00
2022-12-27T00:42:41.229Z,0.00
2022-12-27T00:43:41.420Z,0.00
2022-12-27T00:44:41.558Z,0.00
2022-12-27T00:45:41.776Z,0.00
2022-12-27T00:46:41.958Z,0.00
2022-12-27T00:47:42.076Z,0.00
2022-12-27T00:48:42.242Z,0.00
2022-12-27T00:49:42.427Z,0.00
2022-12-27T00:50:42.625Z,0.00
2022-12-27T00:51:42.813Z,0.00
2022-12-27T00:52:43.066Z,0.00
2022-12-27T00:53:43.153Z,0.00
2022-12-27T00:54:43.328Z,0.00
2022-12-27T00:55:43.495Z,0.00
2022-12-27T00:56:43.685Z,0.00
2022-12-27T00:57:43.876Z,0.00
2022-12-27T00:58:44.057Z,0.00
2022-12-27T00:59:44.243Z,0.00
2022-12-27T01:00:44.540Z,0.00
2022-12-27T01:01:44.677Z,0.00
2022-12-27T01:02:44.783Z,0.00
2022-12-27T01:03:44.982Z,0.00
2022-12-27T01:04:45.125Z,0.00
2022-12-27T01:05:45.274Z,0.00
2022-12-27T01:06:45.466Z,0.00
2022-12-27T01:07:45.642Z,0.00
2022-12-27T01:08:45.874Z,0.00
2022-12-27T01:09:45.987Z,0.00
2022-12-27T01:10:46.172Z,0.00
2022-12-27T01:11:46.410Z,0.00
2022-12-27T01:12:46.511Z,0.00
2022-12-27T01:13:46.722Z,0.00
2022-12-27T01:14:46.870Z,0.00
2022-12-27T01:15:47.094Z,0.00
2022-12-27T01:16:47.354Z,0.00
2022-12-27T01:17:47.405Z,0.00
2022-12-27T01:18:47.599Z,0.00
2022-12-27T01:19:47.747Z,0.00
2022-12-27T01:20:47.961Z,0.00
2022-12-27T01:21:48.085Z,0.00
2022-12-27T01:22:48.279Z,0.00
2022-12-27T01:23:48.478Z,0.00
2022-12-27T01:24:48.637Z,0.00
2022-12-27T01:25:48.814Z,0.00
2022-12-27T01:26:49.010Z,0.00
2022-12-27T01:27:49.191Z,0.00
2022-12-27T01:28:49.355Z,0.00
2022-12-27T01:29:49.541Z,0.00
2022-12-27T01:30:49.713Z,0.00
2022-12-27T01:31:49.966Z,0.00
2022-12-27T01:32:50.077Z,0.00
2022-12-27T01:33:50.283Z,0.00
2022-12-27T01:34:50.424Z,0.00
2022-12-27T01:35:50.608Z,0.00
2022-12-27T01:36:50.818Z,0.00
2022-12-27T01:37:50.944Z,0.00
2022-12-27T01:38:51.140Z,0.00
2022-12-27T01:39:51.315Z,0.00
2022-12-27T01:40:51.495Z,0.00
2022-12-27T01:41:51.704Z,0.00
2022-12-27T01:42:51.846Z,0.00
2022-12-27T01:43:52.048Z,0.00
2022-12-27T01:44:52.212Z,0.00
2022-12-27T01:45:52.391Z,0.00
2022-12-27T01:46:52.588Z,0.00
2022-12-27T01:47:52.727Z,0.00
2022-12-27T01:48:52.925Z,0.00
2022-12-27T01:49:53.109Z,0.00
2022-12-27T01:50:53.261Z,0.00
2022-12-27T01:51:53.469Z,0.00
2022-12-27T01:52:53.638Z,0.00
2022-12-27T01:53:53.799Z,0.00
2022-12-27T01:54:53.980Z,0.00
2022-12-27T01:55:54.163Z,0.00
2022-12-27T01:56:54.339Z,0.00
2022-12-27T01:57:54.478Z,0.00
2022-12-27T01:58:54.663Z,0.00
2022-12-27T01:59:54.847Z,0.00
2022-12-27T02:00:55.099Z,0.00
2022-12-27T02:01:55.298Z,0.00
2022-12-27T02:02:55.401Z,0.00
2022-12-27T02:03:55.560Z,0.00
2022-12-27T02:04:55.740Z,0.00
2022-12-27T02:05:55.934Z,0.00
2022-12-27T02:06:56.073Z,0.00
2022-12-27T02:07:56.252Z,0.00
2022-12-27T02:08:56.451Z,0.00
2022-12-27T02:09:56.627Z,0.00
2022-12-27T02:10:56.817Z,0.00
2022-12-27T02:11:57.086Z,0.00
2022-12-27T02:12:57.169Z,0.00
2022-12-27T02:13:57.342Z,0.00
2022-12-27T02:14:57.534Z,0.00
2022-12-27T02:15:57.683Z,0.00
2022-12-27T02:16:57.904Z,0.00
2022-12-27T02:17:58.040Z,0.00
2022-12-27T02:18:58.220Z,0.00
2022-12-27T02:19:58.431Z,0.00
2022-12-27T02:20:58.581Z,0.00
2022-12-27T02:21:58.753Z,0.00
2022-12-27T02:22:58.974Z,0.00
2022-12-27T02:23:59.118Z,0.00
2022-12-27T02:24:59.283Z,0.00
2022-12-27T02:25:59.483Z,0.00
2022-12-27T02:26:59.645Z,0.00
2022-12-27T02:27:59.836Z,0.00
2022-12-27T02:29:00.014Z,0.00
2022-12-27T02:30:00.190Z,0.00
2022-12-27T02:31:00.425Z,0.00
2022-12-27T02:32:00.544Z,0.00
2022-12-27T02:33:00.745Z,0.00
2022-12-27T02:34:00.890Z,0.00
2022-12-27T02:35:01.079Z,0.00
2022-12-27T02:36:01.253Z,0.00
2022-12-27T02:37:01.443Z,0.00
2022-12-27T02:38:01.617Z,0.00
2022-12-27T02:39:01.794Z,0.00
2022-12-27T02:40:01.957Z,0.00
2022-12-27T02:41:02.159Z,0.00
2022-12-27T02:42:02.307Z,0.00
2022-12-27T02:43:02.483Z,0.00
2022-12-27T02:44:02.661Z,0.00
2022-12-27T02:45:02.829Z,0.00
2022-12-27T02:46:03.041Z,0.00
2022-12-27T02:47:03.190Z,0.00
2022-12-27T02:48:03.320Z,0.00
2022-12-27T02:49:03.507Z,0.00
2022-12-27T02:50:03.679Z,0.00
2022-12-27T02:51:03.880Z,0.00
2022-12-27T02:52:04.050Z,0.00
2022-12-27T02:53:04.232Z,0.00
2022-12-27T02:54:04.388Z,0.00
2022-12-27T02:55:04.550Z,0.00
2022-12-27T02:56:04.743Z,0.00
2022-12-27T02:57:04.914Z,0.00
2022-12-27T02:58:05.139Z,0.00
2022-12-27T02:59:05.273Z,0.00
2022-12-27T03:00:05.440Z,0.00
2022-12-27T03:01:05.675Z,0.00
2022-12-27T03:02:05.900Z,0.00
2022-12-27T03:03:06.004Z,0.00
2022-12-27T03:04:06.161Z,0.00
2022-12-27T03:05:06.350Z,0.00
2022-12-27T03:06:06.543Z,0.00
2022-12-27T03:07:06.688Z,0.00
2022-12-27T03:08:06.857Z,0.00
2022-12-27T03:09:07.084Z,0.00
2022-12-27T03:10:07.234Z,0.00
2022-12-27T03:11:07.391Z,0.00
2022-12-27T03:12:07.521Z,0.00
2022-12-27T03:13:07.704Z,0.00
2022-12-27T03:14:07.883Z,0.00
2022-12-27T03:15:08.077Z,0.00
2022-12-27T03:16:08.369Z,0.00
2022-12-27T03:17:08.423Z,0.00
2022-12-27T03:18:08.603Z,0.00
2022-12-27T03:19:08.777Z,0.00
2022-12-27T03:20:08.961Z,0.00
2022-12-27T03:21:09.151Z,0.00
2022-12-27T03:22:09.287Z,0.00
2022-12-27T03:23:09.457Z,0.00
2022-12-27T03:24:09.664Z,0.00
2022-12-27T03:25:09.843Z,0.00
2022-12-27T03:26:09.999Z,0.00
2022-12-27T03:27:10.171Z,0.00
2022-12-27T03:28:10.342Z,0.00
2022-12-27T03:29:10.523Z,0.00
2022-12-27T03:30:10.728Z,0.00
2022-12-27T03:31:10.898Z,0.00
2022-12-27T03:32:11.040Z,0.00
2022-12-27T03:33:11.217Z,0.00
2022-12-27T03:34:11.387Z,0.00
2022-12-27T03:35:11.596Z,0.00
2022-12-27T03:36:11.726Z,0.00
2022-12-27T03:37:11.908Z,0.00
2022-12-27T03:38:12.116Z,0.00
2022-12-27T03:39:12.283Z,0.00
2022-12-27T03:40:12.462Z,0.00
2022-12-27T03:41:12.650Z,0.00
2022-12-27T03:42:12.843Z,0.00
2022-12-27T03:43:13.020Z,0.00
2022-12-27T03:44:13.189Z,0.00
2022-12-27T03:45:13.386Z,0.00
2022-12-27T03:46:13.569Z,0.00
2022-12-27T03:47:13.739Z,0.00
2022-12-27T03:48:13.941Z,0.00
2022-12-27T03:49:14.119Z,0.00
2022-12-27T03:50:14.290Z,0.00
2022-12-27T03:51:14.513Z,0.00
2022-12-27T03:52:14.636Z,0.00
2022-12-27T03:53:14.843Z,0.00
2022-12-27T03:54:15.005Z,0.00
2022-12-27T03:55:15.147Z,0.00
2022-12-27T03:56:15.322Z,0.00
2022-12-27T03:57:15.510Z,0.00
2022-12-27T03:58:15.707Z,0.00
2022-12-27T03:59:15.864Z,0.00
2022-12-27T04:00:16.018Z,0.00
2022-12-27T04:01:16.285Z,0.00
2022-12-27T04:02:16.474Z,0.00
2022-12-27T04:03:16.632Z,0.00
2022-12-27T04:04:16.707Z,0.00
2022-12-27T04:05:16.888Z,0.00
2022-12-27T04:06:17.067Z,0.00
2022-12-27T04:07:17.256Z,0.00
2022-12-27T04:08:17.448Z,0.00
2022-12-27T04:09:17.585Z,0.00
2022-12-27T04:10:17.772Z,0.00
2022-12-27T04:11:17.965Z,0.00
2022-12-27T04:12:18.129Z,0.00
2022-12-27T04:13:18.354Z,0.00
2022-12-27T04:14:18.500Z,0.00
2022-12-27T04:15:18.669Z,0.00
2022-12-27T04:16:18.912Z,0.00
2022-12-27T04:17:19.033Z,0.00
2022-12-27T04:18:19.235Z,0.00
2022-12-27T04:19:19.363Z,0.00
2022-12-27T04:20:19.546Z,0.00
2022-12-27T04:21:19.708Z,0.00
2022-12-27T04:22:19.880Z,0.00
2022-12-27T04:23:20.100Z,0.00
2022-12-27T04:24:20.224Z,0.00
2022-12-27T04:25:20.427Z,0.00
2022-12-27T04:26:20.586Z,0.00
2022-12-27T04:27:20.771Z,0.00
2022-12-27T04:28:20.960Z,0.00
2022-12-27T04:29:21.120Z,0.00
2022-12-27T04:30:21.260Z,0.00
2022-12-27T04:31:21.501Z,0.00
2022-12-27T04:32:21.615Z,0.00
2022-12-27T04:33:21.833Z,0.00
2022-12-27T04:34:21.959Z,0.00
2022-12-27T04:35:22.147Z,0.00
2022-12-27T04:36:22.326Z,0.00
2022-12-27T04:37:22.530Z,0.00
2022-12-27T04:38:22.688Z,0.00
2022-12-27T04:39:22.841Z,0.00
2022-12-27T04:40:23.025Z,0.00
2022-12-27T04:41:23.202Z,0.00
2022-12-27T04:42:23.372Z,0.00
2022-12-27T04:43:23.573Z,0.00
2022-12-27T04:44:23.722Z,0.00
2022-12-27T04:45:23.909Z,0.00
2022-12-27T04:46:24.100Z,0.00
2022-12-27T04:47:24.319Z,0.00
2022-12-27T04:48:24.432Z,0.00
2022-12-27T04:49:24.633Z,0.00
2022-12-27T04:50:24.767Z,0.00
2022-12-27T04:51:24.968Z,0.00
2022-12-27T04:52:25.169Z,0.00
2022-12-27T04:53:25.305Z,0.00
2022-12-27T04:54:25.487Z,0.00
2022-12-27T04:55:25.679Z,0.00
2022-12-27T04:56:25.862Z,0.00
2022-12-27T04:57:26.047Z,0.00
2022-12-27T04:58:26.197Z,0.00
2022-12-27T04:59:26.385Z,0.00
2022-12-27T05:00:26.567Z,0.00
2022-12-27T05:01:26.845Z,0.00
2022-12-27T05:02:27.105Z,0.00
2022-12-27T05:03:27.130Z,0.00
2022-12-27T05:04:27.278Z,0.00
2022-12-27T05:05:27.482Z,0.00
2022-12-27T05:06:27.647Z,0.00
2022-12-27T05:07:27.836Z,0.00
2022-12-27T05:08:28.022Z,0.00
2022-12-27T05:09:28.191Z,0.00
2022-12-27T05:10:28.367Z,0.00
2022-12-27T05:11:28.536Z,0.00
2022-12-27T05:12:28.747Z,0.00
2022-12-27T05:13:28.884Z,0.00
2022-12-27T05:14:29.101Z,0.00
2022-12-27T05:15:29.253Z,0.00
2022-12-27T05:16:29.460Z,0.00
2022-12-27T05:17:29.623Z,0.00
2022-12-27T05:18:29.808Z,0.00
2022-12-27T05:19:30.003Z,0.00
2022-12-27T05:20:30.152Z,0.00
2022-12-27T05:21:30.303Z,0.00
2022-12-27T05:22:30.525Z,0.00
2022-12-27T05:23:30.662Z,0.00
2022-12-27T05:24:30.848Z,0.00
2022-12-27T05:25:31.024Z,0.00
2022-12-27T05:26:31.203Z,0.00
2022-12-27T05:27:31.393Z,0.00
2022-12-27T05:28:31.590Z,0.00
2022-12-27T05:29:31.726Z,0.00
2022-12-27T05:30:31.907Z,0.00
2022-12-27T05:31:32.152Z,0.00
2022-12-27T05:32:32.276Z,0.00
2022-12-27T05:33:32.427Z,0.00
2022-12-27T05:34:32.588Z,0.00
2022-12-27T05:35:32.771Z,0.00
2022-12-27T05:36:32.953Z,0.00
2022-12-27T05:37:33.122Z,0.00
2022-12-27T05:38:33.326Z,0.00
2022-12-27T05:39:33.474Z,0.00
2022-12-27T05:40:33.695Z,0.00
2022-12-27T05:41:33.822Z,0.00
2022-12-27T05:42:33.967Z,0.00
2022-12-27T05:43:34.140Z,0.00
2022-12-27T05:44:34.336Z,0.00
2022-12-27T05:45:34.479Z,0.00
2022-12-27T05:46:34.725Z,0.00
2022-12-27T05:47:34.865Z,0.00
2022-12-27T05:48:35.000Z,0.00
2022-12-27T05:49:35.156Z,0.00
2022-12-27T05:50:35.348Z,0.00
2022-12-27T05:51:35.548Z,0.00
2022-12-27T05:52:40.780Z,0.00
2022-12-27T05:53:36.885Z,0.00
2022-12-27T05:54:36.062Z,0.00
2022-12-27T05:55:36.247Z,0.00
2022-12-27T05:56:36.416Z,0.00
2022-12-27T05:57:36.609Z,0.00
2022-12-27T05:58:36.755Z,0.00
2022-12-27T05:59:36.920Z,0.00
2022-12-27T06:00:37.117Z,0.00
2022-12-27T06:01:37.406Z,0.00
2022-12-27T06:02:37.696Z,0.00
2022-12-27T06:03:37.690Z,0.00
2022-12-27T06:04:37.820Z,0.00
2022-12-27T06:05:37.978Z,0.00
2022-12-27T06:06:38.178Z,0.00
2022-12-27T06:07:38.404Z,0.00
2022-12-27T06:08:38.554Z,0.00
2022-12-27T06:09:38.737Z,0.00
2022-12-27T06:10:38.897Z,0.00
2022-12-27T06:11:39.019Z,0.00
2022-12-27T06:12:39.231Z,0.00
2022-12-27T06:13:39.365Z,0.00
2022-12-27T06:14:39.549Z,0.00
2022-12-27T06:15:39.730Z,0.00
2022-12-27T06:16:39.901Z,0.00
2022-12-27T06:17:40.059Z,0.00
2022-12-27T06:18:40.231Z,0.00
2022-12-27T06:19:40.399Z,0.00
2022-12-27T06:20:40.592Z,0.00
2022-12-27T06:21:40.789Z,0.00
2022-12-27T06:22:40.997Z,0.00
2022-12-27T06:23:41.122Z,0.00
2022-12-27T06:24:41.319Z,0.00
2022-12-27T06:25:41.478Z,0.00
2022-12-27T06:26:41.651Z,0.00
2022-12-27T06:27:41.829Z,0.00
2022-12-27T06:28:42.003Z,0.00
2022-12-27T06:29:42.185Z,0.00
2022-12-27T06:30:42.383Z,0.00
2022-12-27T06:31:42.598Z,0.00
2022-12-27T06:32:42.753Z,0.00
2022-12-27T06:33:42.910Z,0.00
2022-12-27T06:34:43.132Z,0.00
2022-12-27T06:35:43.265Z,0.00
2022-12-27T06:36:43.459Z,0.00
2022-12-27T06:37:43.607Z,0.00
2022-12-27T06:38:43.806Z,0.00
2022-12-27T06:39:43.968Z,0.00
2022-12-27T06:40:44.150Z,0.00
2022-12-27T06:41:44.338Z,0.00
2022-12-27T06:42:44.511Z,0.00
2022-12-27T06:43:44.698Z,0.00
2022-12-27T06:44:44.867Z,0.00
2022-12-27T06:45:45.171Z,0.00
2022-12-27T06:46:45.255Z,0.00
2022-12-27T06:47:45.391Z,0.00
2022-12-27T06:48:45.583Z,0.00
2022-12-27T06:49:45.740Z,0.00
2022-12-27T06:50:45.929Z,0.00
2022-12-27T06:51:46.107Z,0.00
2022-12-27T06:52:46.290Z,4.00
2022-12-27T06:53:46.474Z,0.00
2022-12-27T06:54:46.654Z,0.00
2022-12-27T06:55:46.835Z,0.00
2022-12-27T06:56:47.039Z,0.00
2022-12-27T06:57:47.178Z,4.00
2022-12-27T06:58:47.361Z,4.00
2022-12-27T06:59:52.452Z,0.00
2022-12-27T07:00:48.780Z,0.00
2022-12-27T07:01:48.046Z,0.00
2022-12-27T07:02:48.211Z,4.00
2022-12-27T07:03:48.230Z,4.00
2022-12-27T07:04:48.409Z,4.00
2022-12-27T07:05:48.581Z,4.00
2022-12-27T07:06:48.794Z,8.00
2022-12-27T07:07:48.929Z,4.00
2022-12-27T07:08:49.113Z,8.00
2022-12-27T07:09:49.287Z,4.00
2022-12-27T07:10:49.454Z,8.00
2022-12-27T07:11:49.667Z,8.00
2022-12-27T07:12:49.843Z,12.00
2022-12-27T07:13:50.047Z,8.00
2022-12-27T07:14:50.177Z,12.00
2022-12-27T07:15:50.327Z,12.00
2022-12-27T07:16:50.595Z,12.00
2022-12-27T07:17:50.738Z,12.00
2022-12-27T07:18:50.900Z,16.00
2022-12-27T07:19:51.028Z,16.00
2022-12-27T07:20:51.216Z,16.00
2022-12-27T07:21:51.393Z,16.00
2022-12-27T07:22:51.561Z,20.00
2022-12-27T07:23:51.747Z,20.00
2022-12-27T07:24:51.909Z,20.00
2022-12-27T07:25:52.076Z,24.00
2022-12-27T07:26:52.249Z,24.00
2022-12-27T07:27:52.407Z,24.00
2022-12-27T07:28:52.593Z,28.00
2022-12-27T07:29:52.737Z,28.00
2022-12-27T07:30:52.900Z,28.00
2022-12-27T07:31:53.121Z,28.00
2022-12-27T07:32:53.245Z,32.00
2022-12-27T07:33:53.396Z,32.00
2022-12-27T07:34:53.540Z,32.00
2022-12-27T07:35:53.705Z,32.00
2022-12-27T07:36:53.891Z,36.00
2022-12-27T07:37:54.047Z,36.00
2022-12-27T07:38:54.237Z,36.00
2022-12-27T07:39:54.394Z,36.00
2022-12-27T07:40:54.576Z,32.00
2022-12-27T07:41:54.742Z,32.00
2022-12-27T07:42:54.903Z,32.00
2022-12-27T07:43:55.081Z,36.00
2022-12-27T07:44:55.234Z,32.00
2022-12-27T07:45:55.446Z,36.00
2022-12-27T07:46:55.580Z,36.00
2022-12-27T07:47:55.732Z,40.00
2022-12-27T07:48:55.947Z,36.00
2022-12-27T07:49:56.101Z,40.00
2022-12-27T07:50:56.312Z,40.00
2022-12-27T07:51:56.467Z,36.00
2022-12-27T07:52:56.642Z,44.00
2022-12-27T07:53:56.801Z,40.00
2022-12-27T07:54:56.951Z,44.00
2022-12-27T07:55:57.113Z,44.00
2022-12-27T07:56:57.297Z,48.00
2022-12-27T07:57:57.459Z,44.00
2022-12-27T07:58:57.633Z,32.00
2022-12-27T07:59:57.783Z,28.00
2022-12-27T08:00:57.977Z,28.00
2022-12-27T08:01:58.301Z,32.00
2022-12-27T08:02:58.378Z,32.00
2022-12-27T08:03:58.453Z,36.00
2022-12-27T08:04:58.650Z,36.00
2022-12-27T08:05:58.833Z,40.00
2022-12-27T08:06:59.022Z,136.00
2022-12-27T08:07:59.164Z,140.00
2022-12-27T08:08:59.352Z,176.00
2022-12-27T08:09:59.522Z,208.00
2022-12-27T08:11:05.282Z,220.00
2022-12-27T08:12:00.923Z,220.00
2022-12-27T08:13:00.111Z,232.00
2022-12-27T08:14:00.264Z,248.00
2022-12-27T08:15:00.450Z,244.00
2022-12-27T08:16:00.623Z,260.00
2022-12-27T08:17:00.895Z,284.00
2022-12-27T08:18:01.030Z,304.00
2022-12-27T08:19:08.078Z,284.00
2022-12-27T08:20:02.316Z,372.00
2022-12-27T08:21:01.475Z,532.00
2022-12-27T08:22:01.647Z,640.00
2022-12-27T08:23:01.831Z,788.00
2022-12-27T08:24:01.957Z,888.00
2022-12-27T08:25:02.153Z,972.00
2022-12-27T08:26:02.295Z,964.00
2022-12-27T08:27:02.498Z,992.00
2022-12-27T08:28:02.690Z,936.00
2022-12-27T08:29:02.828Z,860.00
2022-12-27T08:30:02.985Z,868.00
2022-12-27T08:31:03.217Z,752.00
2022-12-27T08:32:03.334Z,616.00
2022-12-27T08:33:03.508Z,508.00
2022-12-27T08:34:03.690Z,388.00
2022-12-27T08:35:25.130Z,348.00
2022-12-27T08:36:28.708Z,364.00
2022-12-27T08:37:05.196Z,416.00
2022-12-27T08:38:04.373Z,404.00
2022-12-27T08:39:04.568Z,364.00
2022-12-27T08:40:04.720Z,332.00
2022-12-27T08:41:04.894Z,364.00
2022-12-27T08:42:05.039Z,496.00
2022-12-27T08:43:05.248Z,508.00
2022-12-27T08:44:05.413Z,604.00
2022-12-27T08:45:05.579Z,984.00
2022-12-27T08:46:05.812Z,1256.00
2022-12-27T08:47:05.950Z,1040.00
2022-12-27T08:48:06.264Z,996.00
2022-12-27T08:49:06.276Z,1124.00
2022-12-27T08:50:06.441Z,776.00
2022-12-27T08:51:12.152Z,440.00
2022-12-27T08:52:07.781Z,252.00
2022-12-27T08:53:06.979Z,232.00
2022-12-27T08:54:07.149Z,248.00
2022-12-27T08:55:07.281Z,272.00
2022-12-27T08:56:07.442Z,340.00
2022-12-27T08:57:07.642Z,400.00
2022-12-27T08:58:13.990Z,496.00
2022-12-27T08:59:08.998Z,652.00
2022-12-27T09:00:08.133Z,1012.00
2022-12-27T09:01:08.324Z,956.00
2022-12-27T09:02:08.594Z,1084.00
2022-12-27T09:03:08.731Z,876.00
2022-12-27T09:04:08.797Z,904.00
2022-12-27T09:05:08.960Z,768.00
2022-12-27T09:06:09.152Z,644.00
2022-12-27T09:07:09.305Z,540.00
2022-12-27T09:08:09.483Z,600.00
2022-12-27T09:09:09.648Z,756.00
2022-12-27T09:10:09.812Z,928.00
2022-12-27T09:11:09.986Z,1184.00
2022-12-27T09:12:10.164Z,824.00
2022-12-27T09:13:10.365Z,1380.00
2022-12-27T09:14:10.522Z,1752.00
2022-12-27T09:15:10.686Z,2260.00
2022-12-27T09:16:10.879Z,4148.00
2022-12-27T09:17:11.024Z,3976.00
2022-12-27T09:18:11.212Z,3724.00
2022-12-27T09:19:11.408Z,4948.00
2022-12-27T09:20:11.558Z,5600.00
2022-12-27T09:21:11.737Z,5452.00
2022-12-27T09:22:11.928Z,4116.00
2022-12-27T09:23:12.096Z,3828.00
2022-12-27T09:24:12.268Z,5548.00
2022-12-27T09:25:12.450Z,4760.00
2022-12-27T09:26:12.606Z,3380.00
2022-12-27T09:27:12.775Z,1072.00
2022-12-27T09:28:12.947Z,1200.00
2022-12-27T09:29:13.072Z,796.00
2022-12-27T09:30:13.257Z,1140.00
2022-12-27T09:31:13.537Z,1528.00
2022-12-27T09:32:13.607Z,1812.00
2022-12-27T09:33:13.792Z,5576.00
2022-12-27T09:34:13.950Z,3720.00
2022-12-27T09:35:14.136Z,2788.00
2022-12-27T09:36:14.302Z,1696.00
2022-12-27T09:37:14.441Z,2396.00
2022-12-27T09:38:14.623Z,1392.00
2022-12-27T09:39:14.782Z,1048.00
2022-12-27T09:40:14.967Z,824.00
2022-12-27T09:41:19.391Z,776.00
2022-12-27T09:43:22.239Z,1180.00
2022-12-27T09:44:16.680Z,1084.00
2022-12-27T09:45:15.810Z,960.00
2022-12-27T09:46:15.997Z,1020.00
2022-12-27T09:47:16.165Z,1232.00
2022-12-27T09:48:16.289Z,908.00
2022-12-27T09:49:16.474Z,992.00
2022-12-27T09:50:16.605Z,1224.00
2022-12-27T09:51:16.805Z,1156.00
2022-12-27T09:52:16.943Z,1348.00
2022-12-27T09:53:17.125Z,3960.00
2022-12-27T09:54:17.314Z,5224.00
2022-12-27T09:55:17.475Z,6484.00
2022-12-27T09:56:17.669Z,6340.00
2022-12-27T09:57:20.471Z,6212.00
2022-12-27T09:58:17.996Z,6456.00
2022-12-27T09:59:18.188Z,6660.00
2022-12-27T10:00:18.371Z,6320.00
2022-12-27T10:01:18.632Z,5352.00
2022-12-27T10:02:18.795Z,6852.00
2022-12-27T10:03:18.875Z,5376.00
2022-12-27T10:04:19.057Z,5708.00
2022-12-27T10:05:21.285Z,8816.00
2022-12-27T10:06:19.369Z,8892.00
2022-12-27T10:07:19.543Z,8636.00
2022-12-27T10:08:19.730Z,9488.00
2022-12-27T10:09:19.868Z,9024.00
2022-12-27T10:10:20.178Z,8260.00
2022-12-27T10:11:20.211Z,8588.00
2022-12-27T10:12:20.377Z,5784.00
2022-12-27T10:13:20.547Z,5936.00
2022-12-27T10:14:20.742Z,4948.00
2022-12-27T10:15:20.897Z,4612.00
2022-12-27T10:16:21.094Z,2456.00
2022-12-27T10:17:21.233Z,3940.00
2022-12-27T10:18:21.412Z,4176.00
2022-12-27T10:19:21.591Z,4476.00
2022-12-27T10:20:21.743Z,3048.00
2022-12-27T10:21:21.912Z,4608.00
2022-12-27T10:22:22.072Z,4816.00
2022-12-27T10:23:22.275Z,4264.00
2022-12-27T10:24:22.414Z,4216.00
2022-12-27T10:25:22.573Z,4488.00
2022-12-27T10:26:22.752Z,4728.00
2022-12-27T10:27:22.913Z,4584.00
2022-12-27T10:28:23.095Z,4396.00
2022-12-27T10:29:23.252Z,5072.00
2022-12-27T10:30:23.416Z,4888.00
2022-12-27T10:31:23.610Z,4716.00
2022-12-27T10:32:23.777Z,4556.00
2022-12-27T10:33:23.955Z,4356.00
2022-12-27T10:34:24.201Z,4444.00
2022-12-27T10:35:24.308Z,4592.00
2022-12-27T10:36:24.456Z,4616.00
2022-12-27T10:37:24.661Z,5060.00
2022-12-27T10:38:24.808Z,4756.00
2022-12-27T10:39:24.975Z,4152.00
2022-12-27T10:40:28.667Z,4504.00
2022-12-27T10:41:26.323Z,2668.00
2022-12-27T10:42:25.519Z,3220.00
2022-12-27T10:43:25.681Z,2652.00
2022-12-27T10:44:25.846Z,3412.00
2022-12-27T10:45:26.013Z,2256.00
2022-12-27T10:46:32.176Z,2204.00
2022-12-27T10:47:27.358Z,3104.00
2022-12-27T10:48:32.017Z,3944.00
2022-12-27T10:49:27.711Z,1792.00
2022-12-27T10:50:26.889Z,2332.00
2022-12-27T10:51:27.065Z,2176.00
2022-12-27T10:52:27.241Z,2616.00
2022-12-27T10:53:27.400Z,3332.00
2022-12-27T10:54:27.577Z,2296.00
2022-12-27T10:55:27.747Z,1588.00
2022-12-27T10:56:27.909Z,1172.00
2022-12-27T10:57:28.053Z,1116.00
2022-12-27T10:58:28.247Z,2112.00
2022-12-27T10:59:28.393Z,1336.00
2022-12-27T11:00:28.650Z,1232.00
2022-12-27T11:01:28.927Z,932.00
2022-12-27T11:02:28.995Z,908.00
2022-12-27T11:03:29.097Z,860.00
2022-12-27T11:04:29.261Z,724.00
2022-12-27T11:05:29.416Z,732.00
2022-12-27T11:06:29.620Z,928.00
2022-12-27T11:07:29.775Z,616.00
2022-12-27T11:08:29.928Z,608.00
2022-12-27T11:09:30.085Z,620.00
2022-12-27T11:10:30.253Z,584.00
2022-12-27T11:11:30.433Z,712.00
2022-12-27T11:12:30.613Z,680.00
2022-12-27T11:13:30.763Z,464.00
2022-12-27T11:14:30.966Z,448.00
2022-12-27T11:15:31.126Z,428.00
2022-12-27T11:16:31.368Z,436.00
2022-12-27T11:17:31.488Z,496.00
2022-12-27T11:18:31.699Z,512.00
2022-12-27T11:19:31.854Z,748.00
2022-12-27T11:20:32.017Z,1132.00
2022-12-27T11:21:32.214Z,880.00
2022-12-27T11:22:32.393Z,652.00
2022-12-27T11:23:32.552Z,664.00
2022-12-27T11:24:32.708Z,720.00
2022-12-27T11:25:32.879Z,912.00
2022-12-27T11:26:33.049Z,1116.00
2022-12-27T11:27:33.244Z,1108.00
2022-12-27T11:28:33.401Z,1232.00
2022-12-27T11:29:33.569Z,1268.00
2022-12-27T11:30:33.761Z,1412.00
2022-12-27T11:31:33.937Z,1728.00
2022-12-27T11:32:34.065Z,1588.00
2022-12-27T11:33:34.220Z,1656.00
2022-12-27T11:34:34.415Z,1540.00
2022-12-27T11:35:34.594Z,1328.00
2022-12-27T11:36:34.770Z,1440.00
2022-12-27T11:37:34.911Z,1480.00
2022-12-27T11:38:35.105Z,1136.00
2022-12-27T11:39:35.264Z,1336.00
2022-12-27T11:40:35.457Z,1764.00
2022-12-27T11:41:35.581Z,3336.00
2022-12-27T11:42:35.737Z,3108.00
2022-12-27T11:43:35.904Z,2708.00
2022-12-27T11:44:36.108Z,3092.00
2022-12-27T11:45:36.275Z,3056.00
2022-12-27T11:46:36.483Z,2976.00
2022-12-27T11:47:36.574Z,2960.00
2022-12-27T11:48:36.739Z,2912.00
2022-12-27T11:49:37.032Z,2928.00
2022-12-27T11:50:37.129Z,2912.00
2022-12-27T11:51:37.270Z,2848.00
2022-12-27T11:52:37.435Z,2892.00
2022-12-27T11:53:37.587Z,2500.00
2022-12-27T11:54:37.816Z,2952.00
2022-12-27T11:55:37.937Z,2976.00
2022-12-27T11:56:38.107Z,3080.00
2022-12-27T11:57:38.276Z,2944.00
2022-12-27T11:58:38.490Z,2928.00
2022-12-27T11:59:38.747Z,2948.00
2022-12-27T12:00:38.811Z,2804.00
2022-12-27T12:01:39.042Z,2872.00
2022-12-27T12:02:39.250Z,2904.00
2022-12-27T12:03:39.376Z,2908.00
2022-12-27T12:04:39.529Z,2880.00
2022-12-27T12:05:39.738Z,2960.00
2022-12-27T12:06:39.914Z,3012.00
2022-12-27T12:07:40.070Z,2988.00
2022-12-27T12:08:40.282Z,3380.00
2022-12-27T12:09:40.384Z,3452.00
2022-12-27T12:10:40.565Z,1744.00
2022-12-27T12:11:40.743Z,1760.00
2022-12-27T12:12:40.891Z,2644.00
2022-12-27T12:13:41.086Z,2968.00
2022-12-27T12:14:41.294Z,2888.00
2022-12-27T12:15:41.422Z,2916.00
2022-12-27T12:16:41.590Z,2876.00
2022-12-27T12:17:41.741Z,2844.00
2022-12-27T12:18:41.939Z,3040.00
2022-12-27T12:19:42.122Z,3120.00
2022-12-27T12:20:45.701Z,2944.00
2022-12-27T12:21:43.448Z,2752.00
2022-12-27T12:22:42.631Z,2844.00
2022-12-27T12:23:42.786Z,3108.00
2022-12-27T12:24:42.976Z,3476.00
2022-12-27T12:25:43.144Z,3436.00
2022-12-27T12:26:43.325Z,3068.00
2022-12-27T12:27:43.490Z,3332.00
2022-12-27T12:29:00.305Z,3524.00
2022-12-27T12:29:44.845Z,1316.00
2022-12-27T12:30:44.006Z,3004.00
2022-12-27T12:31:44.217Z,2820.00
2022-12-27T12:32:44.363Z,3308.00
2022-12-27T12:33:44.528Z,2960.00
2022-12-27T12:34:44.714Z,2276.00
2022-12-27T12:35:44.886Z,2408.00
2022-12-27T12:36:50.699Z,3020.00
2022-12-27T12:37:46.238Z,2020.00
2022-12-27T12:38:45.421Z,3900.00
2022-12-27T12:39:45.583Z,4224.00
2022-12-27T12:40:45.801Z,4224.00
2022-12-27T12:41:45.908Z,3372.00
2022-12-27T12:42:46.079Z,3028.00
2022-12-27T12:43:46.257Z,2864.00
2022-12-27T12:44:46.427Z,2836.00
2022-12-27T12:45:46.618Z,2836.00
2022-12-27T12:46:46.783Z,2688.00
2022-12-27T12:47:46.933Z,2432.00
2022-12-27T12:48:47.131Z,2428.00
2022-12-27T12:49:47.298Z,2488.00
2022-12-27T12:50:47.472Z,2600.00
2022-12-27T12:51:47.636Z,2656.00
2022-12-27T12:52:47.828Z,2680.00
2022-12-27T12:53:47.977Z,2712.00
2022-12-27T12:54:48.148Z,2716.00